Time;durP1;ratioP1;P1;durP2;ratioP2;P2;SDS_P1;SDS_P2;PMS_P1;PMS_P2;Temp;Humidity;BMP_temperature;BMP_pressure;BME280_temperature;BME280_humidity;BME280_pressure;Samples;Min_cycle;Max_cycle;Signal;HPM_P1;HPM_P2
2022/08/22 00:01:09;;;;;;;4.00;3.63;;;17.20;92.20;;;;;;5061015;28;20481;-80
2022/08/22 00:03:45;;;;;;;4.80;3.93;;;17.20;92.40;;;;;;5060469;28;20477;-80
2022/08/22 00:06:24;;;;;;;4.40;4.10;;;17.10;92.90;;;;;;5061313;28;20449;-81
2022/08/22 00:09:01;;;;;;;4.03;3.83;;;17.00;93.00;;;;;;5061064;28;20503;-80
2022/08/22 00:11:40;;;;;;;4.27;3.90;;;16.90;93.30;;;;;;5060576;28;20458;-80
2022/08/22 00:14:16;;;;;;;5.53;4.13;;;16.60;93.80;;;;;;5060694;28;20467;-79
2022/08/22 00:16:53;;;;;;;4.37;4.07;;;16.60;94.60;;;;;;5060490;28;20466;-79
2022/08/22 00:19:25;;;;;;;5.03;4.37;;;16.50;94.90;;;;;;5060433;28;20520;-80
2022/08/22 00:22:00;;;;;;;6.37;4.47;;;16.60;95.00;;;;;;5060980;28;20493;-80
2022/08/22 00:24:31;;;;;;;4.30;3.97;;;16.70;94.90;;;;;;5060790;28;20477;-80
2022/08/22 00:27:03;;;;;;;4.50;4.10;;;16.80;94.90;;;;;;5060598;28;20443;-81
2022/08/22 00:29:35;;;;;;;4.57;4.20;;;16.80;94.20;;;;;;5059938;28;20443;-80
2022/08/22 00:32:10;;;;;;;4.30;3.90;;;16.90;93.70;;;;;;5060584;28;20959;-80
2022/08/22 00:34:40;;;;;;;4.50;4.10;;;17.00;93.20;;;;;;5060222;28;20482;-80
2022/08/22 00:37:15;;;;;;;4.77;4.37;;;17.00;92.80;;;;;;5059672;28;20551;-80
2022/08/22 00:39:46;;;;;;;4.47;4.03;;;17.10;92.70;;;;;;5060319;28;20449;-80
2022/08/22 00:42:55;;;;;;;3.77;3.47;;;17.10;92.40;;;;;;5060139;28;20482;-81
2022/08/22 00:45:47;;;;;;;10.93;4.33;;;17.10;92.60;;;;;;5038787;28;20477;-80
2022/08/22 00:48:46;;;;;;;4.30;3.90;;;17.10;92.50;;;;;;5059591;28;20459;-81
2022/08/22 00:51:54;;;;;;;4.40;3.90;;;17.10;92.70;;;;;;5060227;28;20447;-80
2022/08/22 00:54:32;;;;;;;3.50;3.30;;;17.10;92.70;;;;;;5053481;28;20487;-80
2022/08/22 00:57:16;;;;;;;4.80;4.03;;;17.00;92.70;;;;;;5059928;28;20460;-81
2022/08/22 01:00:04;;;;;;;6.10;3.90;;;17.00;92.50;;;;;;5059884;28;20459;-81
2022/08/22 01:02:50;;;;;;;3.93;3.63;;;16.70;92.90;;;;;;5059865;28;20491;-79
2022/08/22 01:05:35;;;;;;;4.47;4.07;;;16.70;92.80;;;;;;5059407;28;20469;-80
2022/08/22 01:08:15;;;;;;;4.33;3.77;;;16.80;92.90;;;;;;5059829;28;20439;-80
2022/08/22 01:11:05;;;;;;;4.30;3.70;;;16.80;92.90;;;;;;5059748;28;20434;-80
2022/08/22 01:13:46;;;;;;;4.20;3.90;;;16.80;93.00;;;;;;5059509;28;20453;-80
2022/08/22 01:16:27;;;;;;;4.00;3.63;;;16.70;93.10;;;;;;5059863;28;20939;-81
2022/08/22 01:19:18;;;;;;;5.13;4.63;;;16.70;93.10;;;;;;5060067;28;20449;-80
2022/08/22 01:22:15;;;;;;;4.80;4.40;;;16.60;93.10;;;;;;5059556;28;20439;-81
2022/08/22 01:25:21;;;;;;;3.47;3.17;;;16.70;93.30;;;;;;5056102;28;20483;-80
2022/08/22 01:28:16;;;;;;;3.80;3.50;;;16.60;93.20;;;;;;5059208;28;20458;-81
2022/08/22 01:31:22;;;;;;;4.30;3.60;;;16.60;93.30;;;;;;5059655;28;20451;-80
2022/08/22 01:34:28;;;;;;;3.77;3.37;;;16.60;93.50;;;;;;5059122;28;20457;-80
2022/08/22 01:37:26;;;;;;;3.90;3.57;;;16.60;93.50;;;;;;5059828;28;20454;-80
2022/08/22 01:40:23;;;;;;;4.67;4.27;;;16.60;93.70;;;;;;5059370;28;20928;-80
2022/08/22 01:43:08;;;;;;;7.13;4.33;;;16.60;94.00;;;;;;5059904;28;20485;-79
2022/08/22 01:45:58;;;;;;;4.80;4.13;;;16.60;94.20;;;;;;5060158;28;20462;-79
2022/08/22 01:48:33;;;;;;;3.90;3.60;;;16.60;94.20;;;;;;5058778;28;20476;-80
2022/08/22 01:51:14;;;;;;;5.93;4.77;;;16.40;94.20;;;;;;5058647;28;20445;-80
2022/08/22 01:53:50;;;;;;;5.10;4.07;;;16.50;94.30;;;;;;5058908;28;20442;-80
2022/08/22 01:56:19;;;;;;;3.80;3.30;;;16.50;94.30;;;;;;5057803;28;20476;-80
2022/08/22 01:58:56;;;;;;;3.77;3.40;;;16.50;94.00;;;;;;5058803;28;20529;-80
2022/08/22 02:01:33;;;;;;;4.47;4.07;;;16.50;94.20;;;;;;5059229;28;20427;-80
2022/08/22 02:04:06;;;;;;;4.43;3.70;;;16.50;94.30;;;;;;5058521;28;20503;-80
2022/08/22 02:06:44;;;;;;;4.10;3.73;;;16.50;94.60;;;;;;5059398;28;20434;-80
2022/08/22 02:09:22;;;;;;;3.97;3.57;;;16.50;94.90;;;;;;5058759;28;20449;-80
2022/08/22 02:11:55;;;;;;;4.50;4.10;;;16.50;94.80;;;;;;5058785;28;20449;-80
2022/08/22 02:14:38;;;;;;;4.00;3.70;;;16.40;94.80;;;;;;5058139;28;20491;-80
2022/08/22 02:17:15;;;;;;;4.17;3.87;;;16.50;95.00;;;;;;5057592;28;20448;-81
2022/08/22 02:19:49;;;;;;;4.13;3.80;;;16.40;95.10;;;;;;5058095;28;20452;-80
2022/08/22 02:22:27;;;;;;;4.63;4.33;;;16.40;95.20;;;;;;5057771;28;20442;-80
2022/08/22 02:25:04;;;;;;;5.97;5.20;;;16.40;95.50;;;;;;5057788;28;20484;-81
2022/08/22 02:27:36;;;;;;;4.90;4.37;;;16.40;96.10;;;;;;5058193;28;20438;-81
2022/08/22 02:30:08;;;;;;;4.10;3.80;;;16.40;96.40;;;;;;5058424;28;20545;-81
2022/08/22 02:32:44;;;;;;;4.97;4.47;;;16.30;96.50;;;;;;5058405;28;20817;-80
2022/08/22 02:35:22;;;;;;;5.60;5.10;;;16.30;96.90;;;;;;5058560;28;20489;-81
2022/08/22 02:37:57;;;;;;;5.60;5.10;;;16.20;97.10;;;;;;5057494;28;20453;-80
2022/08/22 02:40:34;;;;;;;5.57;4.53;;;16.20;97.30;;;;;;5058085;28;20448;-81
2022/08/22 02:43:11;;;;;;;5.13;4.63;;;16.20;97.70;;;;;;5057635;28;20489;-80
2022/08/22 02:45:45;;;;;;;5.97;5.30;;;16.20;98.00;;;;;;5058148;28;20486;-81
2022/08/22 02:48:19;;;;;;;7.40;6.67;;;16.10;98.40;;;;;;5057314;28;20482;-80
2022/08/22 02:50:55;;;;;;;7.27;6.67;;;16.10;99.10;;;;;;5058650;28;20450;-80
2022/08/22 02:53:28;;;;;;;6.03;5.43;;;16.10;99.30;;;;;;5058164;28;20448;-81
2022/08/22 02:56:01;;;;;;;6.70;5.23;;;16.10;99.30;;;;;;5057982;28;20482;-80
2022/08/22 02:58:39;;;;;;;7.10;5.20;;;16.00;99.40;;;;;;5058516;28;20443;-81
2022/08/22 03:01:20;;;;;;;5.50;5.00;;;16.00;99.40;;;;;;5057785;28;20456;-80
2022/08/22 03:03:48;;;;;;;5.57;5.10;;;16.00;99.30;;;;;;5057742;28;20488;-80
2022/08/22 03:06:36;;;;;;;7.27;4.70;;;15.90;99.30;;;;;;5058258;28;20450;-80
2022/08/22 03:09:19;;;;;;;7.50;5.20;;;15.90;99.60;;;;;;5057403;28;20472;-80
2022/08/22 03:11:58;;;;;;;5.73;5.20;;;15.90;99.90;;;;;;5057708;28;20455;-81
2022/08/22 03:14:30;;;;;;;6.40;5.30;;;15.80;99.90;;;;;;5058099;28;20461;-80
2022/08/22 03:17:03;;;;;;;4.30;4.00;;;15.80;99.90;;;;;;5058483;28;20461;-80
2022/08/22 03:19:45;;;;;;;6.00;4.70;;;15.80;99.90;;;;;;5057858;28;20461;-80
2022/08/22 03:22:19;;;;;;;4.90;4.57;;;15.80;99.90;;;;;;5057648;28;20454;-80
2022/08/22 03:24:52;;;;;;;5.03;4.70;;;15.70;99.90;;;;;;5057633;28;20483;-81
2022/08/22 03:27:24;;;;;;;7.27;6.00;;;15.70;99.90;;;;;;5059628;28;20449;-80
2022/08/22 03:29:57;;;;;;;5.63;5.13;;;15.60;99.90;;;;;;5061132;28;20459;-80
2022/08/22 03:32:44;;;;;;;7.93;5.47;;;15.60;99.90;;;;;;5061404;28;20974;-80
2022/08/22 03:35:24;;;;;;;6.90;5.00;;;15.60;99.90;;;;;;5061586;28;20469;-80
2022/08/22 03:37:56;;;;;;;5.20;4.80;;;15.60;99.90;;;;;;5061778;28;20456;-80
2022/08/22 03:40:30;;;;;;;7.17;5.67;;;15.50;99.90;;;;;;5061080;28;20950;-80
2022/08/22 03:43:33;;;;;;;6.70;5.73;;;15.50;99.90;;;;;;5061056;28;20494;-80
2022/08/22 03:46:26;;;;;;;8.40;6.00;;;15.50;99.90;;;;;;5035856;28;20471;-80
2022/08/22 03:49:29;;;;;;;8.80;6.47;;;15.40;99.90;;;;;;5061347;28;20430;-80
2022/08/22 03:52:12;;;;;;;8.30;7.60;;;15.40;99.90;;;;;;5031408;28;20449;-80
2022/08/22 03:54:59;;;;;;;8.80;7.73;;;15.30;99.90;;;;;;5060494;28;20527;-80
2022/08/22 03:58:12;;;;;;;8.27;7.47;;;15.30;99.90;;;;;;5061262;28;20436;-80
2022/08/22 04:01:30;;;;;;;6.83;6.13;;;15.30;99.90;;;;;;5061213;28;20866;-80
2022/08/22 04:04:31;;;;;;;7.83;7.03;;;15.30;99.90;;;;;;4976555;28;20529;-79
2022/08/22 04:07:27;;;;;;;6.80;6.20;;;15.10;99.90;;;;;;5061880;28;20458;-80
2022/08/22 04:10:26;;;;;;;6.73;6.10;;;15.10;99.90;;;;;;5061178;28;20449;-80
2022/08/22 04:13:21;;;;;;;7.57;6.97;;;15.10;99.90;;;;;;5060461;28;20449;-81
2022/08/22 04:16:06;;;;;;;6.53;5.97;;;15.00;99.90;;;;;;5060787;28;20478;-80
2022/08/22 04:18:57;;;;;;;8.00;6.07;;;15.00;99.90;;;;;;5060280;28;20461;-80
2022/08/22 04:21:48;;;;;;;8.80;6.83;;;15.00;99.90;;;;;;5060206;28;20443;-81
2022/08/22 04:24:47;;;;;;;7.20;6.57;;;15.00;99.90;;;;;;5060217;28;20998;-80
2022/08/22 04:27:21;;;;;;;8.03;5.83;;;14.90;99.90;;;;;;5057766;28;20465;-80
2022/08/22 04:29:57;;;;;;;7.37;6.20;;;14.90;99.90;;;;;;5060138;28;20453;-82
2022/08/22 04:32:29;;;;;;;7.47;6.73;;;14.90;99.90;;;;;;5060898;28;20932;-80
2022/08/22 04:35:00;;;;;;;6.53;5.93;;;14.90;99.90;;;;;;5060251;28;21005;-80
2022/08/22 04:37:36;;;;;;;7.00;6.40;;;14.90;99.90;;;;;;5060105;28;20442;-80
2022/08/22 04:40:10;;;;;;;6.67;6.03;;;14.90;99.90;;;;;;5059382;28;20446;-80
2022/08/22 04:42:41;;;;;;;7.70;6.40;;;14.90;99.90;;;;;;5059984;28;20483;-80
2022/08/22 04:45:12;;;;;;;6.63;5.83;;;14.90;99.90;;;;;;5059965;28;20507;-80
2022/08/22 04:47:42;;;;;;;8.10;7.30;;;14.90;99.90;;;;;;5060025;28;20442;-80
2022/08/22 04:50:17;;;;;;;9.43;6.90;;;14.90;99.90;;;;;;5060040;28;20454;-80
2022/08/22 04:53:01;;;;;;;8.50;7.67;;;14.90;99.90;;;;;;5059470;28;20480;-80
2022/08/22 04:55:35;;;;;;;9.50;8.53;;;14.90;99.90;;;;;;5059789;28;21026;-80
2022/08/22 04:58:11;;;;;;;8.10;7.30;;;15.00;99.90;;;;;;5059937;28;20454;-80
2022/08/22 05:00:44;;;;;;;13.63;9.10;;;15.00;99.90;;;;;;5060321;28;20459;-80
2022/08/22 05:03:16;;;;;;;9.67;8.60;;;15.00;99.90;;;;;;5059053;28;20972;-80
2022/08/22 05:05:44;;;;;;;9.33;8.40;;;15.00;99.90;;;;;;5059822;28;20479;-80
2022/08/22 05:08:18;;;;;;;10.37;7.87;;;15.00;99.90;;;;;;5059481;28;20825;-81
2022/08/22 05:10:47;;;;;;;9.77;8.70;;;15.10;99.90;;;;;;5059838;28;20458;-80
2022/08/22 05:13:19;;;;;;;9.67;8.67;;;15.10;99.90;;;;;;5059454;28;20510;-80
2022/08/22 05:15:49;;;;;;;9.40;8.50;;;15.10;99.90;;;;;;5059575;28;20484;-80
2022/08/22 05:18:20;;;;;;;10.17;9.07;;;15.20;99.90;;;;;;5058854;28;20510;-80
2022/08/22 05:20:49;;;;;;;9.57;8.10;;;15.20;99.90;;;;;;5059524;28;20484;-80
2022/08/22 05:23:23;;;;;;;9.23;8.43;;;15.30;99.90;;;;;;5059845;28;20445;-80
2022/08/22 05:25:53;;;;;;;8.23;7.50;;;15.30;99.90;;;;;;5059601;28;20456;-80
2022/08/22 05:28:33;;;;;;;10.20;8.67;;;15.40;99.90;;;;;;5059590;28;20445;-80
2022/08/22 05:31:05;;;;;;;8.67;7.87;;;15.40;99.90;;;;;;5059420;28;20449;-80
2022/08/22 05:33:37;;;;;;;8.67;7.87;;;15.50;99.90;;;;;;5058939;28;20457;-81
2022/08/22 05:36:08;;;;;;;9.90;8.67;;;15.50;99.90;;;;;;5059409;28;20433;-80
2022/08/22 05:38:41;;;;;;;8.27;7.47;;;15.60;99.90;;;;;;5058837;28;20466;-80
2022/08/22 05:41:11;;;;;;;9.00;8.10;;;15.60;99.90;;;;;;5059353;28;20436;-80
2022/08/22 05:43:41;;;;;;;9.93;8.50;;;15.60;99.90;;;;;;5058433;28;20981;-80
2022/08/22 05:46:15;;;;;;;9.03;8.30;;;15.60;99.90;;;;;;5058350;28;20935;-80
2022/08/22 05:48:47;;;;;;;10.30;9.20;;;15.70;99.90;;;;;;5058977;28;20438;-80
2022/08/22 05:51:17;;;;;;;11.53;8.13;;;15.70;99.90;;;;;;5058380;28;20457;-80
2022/08/22 05:53:50;;;;;;;9.03;8.20;;;15.80;99.90;;;;;;5059028;28;20547;-81
2022/08/22 05:56:25;;;;;;;9.83;8.40;;;15.80;99.90;;;;;;5058173;28;20447;-80
2022/08/22 05:58:54;;;;;;;10.83;8.63;;;15.90;99.90;;;;;;5059002;28;20465;-80
2022/08/22 06:01:30;;;;;;;9.57;8.17;;;16.00;99.90;;;;;;5058981;28;20461;-81
2022/08/22 06:04:06;;;;;;;9.73;8.83;;;16.00;99.90;;;;;;5058866;28;20500;-81
2022/08/22 06:06:39;;;;;;;10.80;8.90;;;16.10;99.90;;;;;;5058935;28;20443;-80
2022/08/22 06:09:13;;;;;;;8.63;7.50;;;16.10;99.90;;;;;;5058099;28;20456;-80
2022/08/22 06:11:45;;;;;;;9.60;8.60;;;16.10;99.90;;;;;;5058434;28;20453;-80
2022/08/22 06:14:23;;;;;;;9.00;8.20;;;16.20;99.90;;;;;;5058309;28;20472;-80
2022/08/22 06:16:56;;;;;;;9.67;8.30;;;16.20;99.90;;;;;;5057767;28;20464;-82
2022/08/22 06:19:24;;;;;;;12.57;10.03;;;16.30;99.90;;;;;;5058169;28;20488;-80
2022/08/22 06:21:52;;;;;;;9.53;8.43;;;16.30;99.90;;;;;;5059090;28;20438;-79
2022/08/22 06:24:24;;;;;;;8.97;8.03;;;16.40;99.90;;;;;;5059445;28;20546;-79
2022/08/22 06:26:53;;;;;;;9.53;8.70;;;16.30;99.90;;;;;;5059676;28;20456;-79
2022/08/22 06:29:29;;;;;;;8.33;7.63;;;16.30;99.90;;;;;;5058416;28;20943;-80
2022/08/22 06:31:58;;;;;;;8.43;7.73;;;16.30;99.90;;;;;;5058209;28;20477;-80
2022/08/22 06:34:28;;;;;;;8.03;7.13;;;16.40;99.90;;;;;;5057938;28;20490;-80
2022/08/22 06:36:57;;;;;;;8.97;8.07;;;16.40;99.90;;;;;;5057947;28;20455;-80
2022/08/22 06:39:28;;;;;;;8.30;7.50;;;16.40;99.90;;;;;;5057918;28;20449;-80
2022/08/22 06:42:01;;;;;;;7.90;7.10;;;16.50;99.90;;;;;;5058204;28;20450;-80
2022/08/22 06:44:31;;;;;;;8.23;7.30;;;16.60;99.90;;;;;;5057336;28;21010;-80
2022/08/22 06:47:00;;;;;;;9.47;8.33;;;16.60;99.90;;;;;;5058132;28;20523;-80
2022/08/22 06:49:29;;;;;;;8.23;7.40;;;16.70;99.90;;;;;;5058001;28;20453;-80
2022/08/22 06:52:00;;;;;;;7.60;6.90;;;16.70;99.90;;;;;;5057820;28;20457;-80
2022/08/22 06:54:33;;;;;;;8.20;7.40;;;16.80;99.90;;;;;;5058557;28;20659;-80
2022/08/22 06:57:00;;;;;;;8.20;6.30;;;16.90;99.90;;;;;;5058277;28;20439;-80
2022/08/22 06:59:30;;;;;;;10.13;6.63;;;16.90;99.90;;;;;;5058508;28;20458;-80
2022/08/22 07:02:03;;;;;;;8.37;7.67;;;17.00;99.90;;;;;;5059561;28;20463;-80
2022/08/22 07:04:31;;;;;;;8.63;7.37;;;17.10;99.90;;;;;;5061453;28;20491;-80
2022/08/22 07:07:00;;;;;;;7.33;6.67;;;17.10;99.90;;;;;;5062323;28;20452;-80
2022/08/22 07:09:31;;;;;;;7.03;6.53;;;17.30;99.90;;;;;;5061411;28;20451;-81
2022/08/22 07:12:02;;;;;;;8.40;6.83;;;17.40;99.90;;;;;;5062644;28;20448;-81
2022/08/22 07:14:32;;;;;;;7.37;6.70;;;17.40;99.90;;;;;;5061999;28;20467;-80
2022/08/22 07:17:01;;;;;;;9.40;7.20;;;17.60;99.90;;;;;;5062001;28;20821;-81
2022/08/22 07:19:30;;;;;;;6.40;5.90;;;17.70;99.90;;;;;;5061297;28;20455;-80
2022/08/22 07:21:58;;;;;;;9.40;6.60;;;17.80;99.90;;;;;;5061181;28;20455;-81
2022/08/22 07:24:30;;;;;;;7.70;7.10;;;18.00;99.90;;;;;;5061506;28;20502;-81
2022/08/22 07:27:07;;;;;;;7.03;6.03;;;18.10;99.90;;;;;;5062263;28;20444;-81
2022/08/22 07:29:41;;;;;;;8.90;5.90;;;18.10;99.90;;;;;;5060948;28;20451;-81
2022/08/22 07:32:12;;;;;;;6.90;6.40;;;18.30;99.90;;;;;;5061393;28;20804;-81
2022/08/22 07:34:55;;;;;;;6.10;5.10;;;18.50;99.90;;;;;;5061169;28;20483;-81
2022/08/22 07:37:30;;;;;;;7.43;6.57;;;18.50;99.90;;;;;;5061576;28;20452;-81
2022/08/22 07:40:07;;;;;;;6.80;5.77;;;18.60;99.90;;;;;;5060834;28;20502;-80
2022/08/22 07:42:42;;;;;;;5.73;5.33;;;18.70;99.90;;;;;;5062210;28;20435;-81
2022/08/22 07:45:12;;;;;;;7.13;6.43;;;18.90;99.90;;;;;;5060880;28;20487;-81
2022/08/22 07:47:52;;;;;;;6.30;5.77;;;19.10;99.90;;;;;;5060954;28;20455;-81
2022/08/22 07:50:25;;;;;;;5.00;4.13;;;19.20;99.90;;;;;;5061327;28;20964;-81
2022/08/22 07:52:57;;;;;;;5.40;4.93;;;19.30;99.90;;;;;;5061842;28;20432;-83
2022/08/22 07:55:27;;;;;;;5.70;4.30;;;19.40;99.90;;;;;;5061081;28;20470;-80
2022/08/22 07:57:57;;;;;;;3.87;3.57;;;19.60;99.90;;;;;;5060722;28;20733;-79
2022/08/22 08:00:25;;;;;;;5.03;4.53;;;19.70;98.20;;;;;;5061378;28;20462;-82
2022/08/22 08:02:57;;;;;;;5.57;4.73;;;19.90;98.20;;;;;;5061548;28;20442;-83
2022/08/22 08:05:27;;;;;;;4.93;4.37;;;20.00;98.00;;;;;;5061792;28;20546;-83
2022/08/22 08:07:56;;;;;;;5.10;4.60;;;20.20;97.80;;;;;;5061803;28;20446;-83
2022/08/22 08:10:28;;;;;;;5.50;5.00;;;20.20;97.90;;;;;;5061262;28;20531;-82
2022/08/22 08:13:02;;;;;;;5.47;4.97;;;20.40;97.10;;;;;;5061289;28;20456;-82
2022/08/22 08:15:31;;;;;;;4.60;4.10;;;20.50;96.90;;;;;;5061374;28;20980;-82
2022/08/22 08:18:04;;;;;;;8.20;4.43;;;20.60;96.30;;;;;;5061202;28;20474;-80
2022/08/22 08:20:33;;;;;;;4.43;4.03;;;20.70;96.30;;;;;;5062082;28;20454;-82
2022/08/22 08:23:02;;;;;;;6.30;4.50;;;20.80;95.40;;;;;;5060134;28;20460;-82
2022/08/22 08:25:51;;;;;;;4.70;4.40;;;20.90;95.40;;;;;;5059675;28;20499;-81
2022/08/22 08:28:36;;;;;;;5.33;4.93;;;21.00;95.20;;;;;;5061400;28;20464;-83
2022/08/22 08:31:08;;;;;;;36.10;31.93;;;21.10;94.70;;;;;;5061243;28;20540;-81
2022/08/22 08:33:40;;;;;;;9.40;8.50;;;21.20;94.50;;;;;;5060789;28;20454;-81
2022/08/22 08:36:20;;;;;;;13.67;12.47;;;21.30;94.40;;;;;;5060111;28;20533;-81
2022/08/22 08:38:56;;;;;;;19.23;17.30;;;21.40;94.80;;;;;;5058839;28;20447;-83
2022/08/22 08:41:51;;;;;;;24.63;22.83;;;21.60;95.50;;;;;;5060471;28;20458;-81
2022/08/22 08:44:34;;;;;;;6.10;5.50;;;21.80;93.90;;;;;;5030191;28;20467;-79
2022/08/22 08:47:24;;;;;;;5.07;4.57;;;22.00;94.30;;;;;;5062426;28;20444;-80
2022/08/22 08:50:14;;;;;;;4.70;4.30;;;22.10;94.30;;;;;;5062021;28;20429;-81
2022/08/22 08:52:59;;;;;;;4.80;4.40;;;22.20;93.30;;;;;;5060968;28;20431;-81
2022/08/22 08:55:41;;;;;;;6.60;6.10;;;22.40;94.20;;;;;;5061231;28;20499;-80
2022/08/22 08:58:26;;;;;;;26.93;24.53;;;22.50;94.10;;;;;;5059139;28;20452;-82
2022/08/22 09:01:02;;;;;;;17.37;15.93;;;22.70;93.60;;;;;;5061023;28;20949;-80
2022/08/22 09:04:00;;;;;;;4.63;4.20;;;22.80;93.70;;;;;;5060680;28;20456;-80
2022/08/22 09:06:43;;;;;;;4.70;4.30;;;23.00;93.50;;;;;;5061180;28;20560;-81
2022/08/22 09:09:28;;;;;;;54.53;50.13;;;23.20;93.00;;;;;;5060195;28;20478;-80
2022/08/22 09:12:35;;;;;;;27.73;25.37;;;23.40;92.90;;;;;;5060853;28;20470;-81
2022/08/22 09:15:36;;;;;;;7.53;6.80;;;23.50;92.10;;;;;;5029652;28;20507;-80
2022/08/22 09:18:23;;;;;;;5.07;4.57;;;23.70;92.70;;;;;;5060355;28;20444;-79
2022/08/22 09:21:09;;;;;;;5.07;4.73;;;23.90;91.50;;;;;;5060721;28;20430;-81
2022/08/22 09:24:05;;;;;;;4.90;4.40;;;24.10;91.70;;;;;;5061195;28;20486;-79
2022/08/22 09:26:45;;;;;;;5.63;5.23;;;24.20;91.40;;;;;;5060890;28;20882;-81
2022/08/22 09:29:34;;;;;;;4.90;4.50;;;24.30;90.40;;;;;;5059379;28;20530;-80
2022/08/22 09:32:09;;;;;;;5.87;5.37;;;24.20;90.90;;;;;;5060305;28;20449;-80
2022/08/22 09:34:53;;;;;;;12.93;11.93;;;24.30;91.20;;;;;;5060419;28;20479;-79
2022/08/22 09:37:29;;;;;;;19.17;17.70;;;24.30;91.40;;;;;;5060144;28;20502;-80
2022/08/22 09:40:04;;;;;;;6.60;5.97;;;24.40;90.90;;;;;;5060030;28;20527;-84
2022/08/22 09:42:40;;;;;;;4.60;3.87;;;24.40;90.40;;;;;;5060056;28;20799;-80
2022/08/22 09:45:44;;;;;;;5.40;4.70;;;24.50;88.10;;;;;;5059099;28;20494;-80
2022/08/22 09:48:38;;;;;;;4.40;4.10;;;24.50;88.60;;;;;;5059968;28;20444;-80
2022/08/22 09:51:14;;;;;;;5.03;4.63;;;24.60;88.90;;;;;;5059795;28;20465;-80
2022/08/22 09:54:01;;;;;;;5.03;4.53;;;24.70;87.90;;;;;;5060172;28;20454;-79
2022/08/22 09:56:37;;;;;;;5.47;4.97;;;24.80;86.90;;;;;;5060329;28;20979;-80
2022/08/22 09:59:08;;;;;;;5.63;4.10;;;24.80;83.80;;;;;;5060138;28;20449;-80
2022/08/22 10:01:40;;;;;;;4.47;4.13;;;24.90;83.70;;;;;;5059722;28;20445;-80
2022/08/22 10:04:42;;;;;;;6.27;4.97;;;25.00;83.20;;;;;;5058799;28;20483;-81
2022/08/22 10:07:37;;;;;;;69.33;63.53;;;25.10;84.10;;;;;;5057888;28;20455;-80
2022/08/22 10:10:15;;;;;;;31.10;28.40;;;25.30;85.20;;;;;;5058318;28;20459;-80
2022/08/22 10:12:51;;;;;;;8.00;7.30;;;25.50;84.50;;;;;;5057266;28;20551;-79
2022/08/22 10:15:23;;;;;;;5.33;4.83;;;25.80;84.10;;;;;;5059908;28;20475;-80
2022/08/22 10:18:07;;;;;;;5.27;4.87;;;26.10;84.70;;;;;;5062617;28;20458;-79
2022/08/22 10:20:46;;;;;;;5.07;4.50;;;26.50;80.10;;;;;;5059028;28;20484;-80
2022/08/22 10:23:19;;;;;;;137.13;125.83;;;26.60;78.20;;;;;;5054895;28;20448;-80
2022/08/22 10:25:51;;;;;;;26.50;24.60;;;26.90;77.20;;;;;;5056082;28;20497;-81
2022/08/22 10:28:31;;;;;;;8.13;7.40;;;27.00;71.60;;;;;;5055533;28;20449;-81
2022/08/22 10:31:18;;;;;;;8.30;7.50;;;27.30;74.80;;;;;;5058469;28;20451;-79
2022/08/22 10:33:57;;;;;;;8.10;6.03;;;27.70;75.10;;;;;;5055939;28;20443;-80
2022/08/22 10:36:35;;;;;;;32.20;29.20;;;28.00;71.20;;;;;;5105361;22;20915;-88
2022/08/22 10:39:06;;;;;;;13.03;11.97;;;28.10;66.50;;;;;;5072368;28;20469;-89
2022/08/22 10:41:54;;;;;;;9.47;8.67;;;28.20;66.00;;;;;;5072839;28;20459;-88
2022/08/22 10:47:37;;;;;;;4.90;4.60;;;28.60;62.20;;;;;;5038537;28;20460;-85
2022/08/22 10:50:09;;;;;;;3.87;3.60;;;28.90;64.00;;;;;;5053247;28;20460;-85
2022/08/22 10:52:49;;;;;;;4.47;4.07;;;29.10;61.40;;;;;;5052578;28;20479;-85
2022/08/22 10:55:21;;;;;;;4.17;3.50;;;29.10;58.80;;;;;;5052653;28;20807;-85
2022/08/22 10:58:03;;;;;;;4.07;3.53;;;29.20;59.30;;;;;;5053018;28;20458;-85
2022/08/22 11:00:47;;;;;;;4.30;4.00;;;29.40;56.30;;;;;;5053690;28;20455;-85
2022/08/22 11:03:19;;;;;;;4.17;3.87;;;29.60;59.00;;;;;;5053041;28;20511;-85
2022/08/22 11:05:48;;;;;;;4.90;4.50;;;29.80;56.30;;;;;;5052576;28;20497;-84
2022/08/22 11:08:55;;;;;;;4.33;3.93;;;30.10;56.40;;;;;;5052257;28;21055;-85
2022/08/22 11:11:43;;;;;;;4.53;4.13;;;30.20;55.10;;;;;;5053360;28;20442;-85
2022/08/22 11:14:36;;;;;;;4.00;3.80;;;30.70;53.30;;;;;;5052955;28;20471;-85
2022/08/22 11:17:15;;;;;;;4.23;3.93;;;31.30;54.30;;;;;;5053090;28;20871;-85
2022/08/22 11:19:59;;;;;;;4.30;3.90;;;32.20;52.20;;;;;;5052760;28;20824;-85
2022/08/22 11:22:33;;;;;;;4.00;3.70;;;32.80;49.50;;;;;;5052956;28;20500;-85
2022/08/22 11:25:31;;;;;;;4.10;3.80;;;33.50;48.20;;;;;;5052540;28;20476;-85
2022/08/22 11:28:14;;;;;;;3.80;3.50;;;34.30;47.80;;;;;;5052384;28;20448;-85
2022/08/22 11:30:53;;;;;;;4.37;3.97;;;35.20;45.10;;;;;;5052801;28;20543;-85
2022/08/22 11:33:30;;;;;;;5.40;4.07;;;35.30;41.50;;;;;;5052807;28;20785;-85
2022/08/22 11:36:25;;;;;;;4.93;4.63;;;34.60;40.70;;;;;;5052552;28;20484;-85
2022/08/22 11:39:02;;;;;;;4.33;3.93;;;33.70;41.30;;;;;;5052314;28;20463;-85
2022/08/22 11:41:45;;;;;;;4.20;3.80;;;33.20;42.00;;;;;;5052813;28;20522;-85
2022/08/22 11:44:17;;;;;;;12.23;11.27;;;32.70;42.40;;;;;;5051716;28;20901;-89
2022/08/22 11:46:47;;;;;;;15.57;14.47;;;32.90;43.30;;;;;;5051550;28;20428;-86
2022/08/22 11:49:31;;;;;;;6.50;5.50;;;33.40;43.30;;;;;;5055799;28;20483;-86
2022/08/22 11:56:30;;;;;;;5.57;4.20;;;34.40;41.60;;;;;;4972159;28;20478;-86
2022/08/22 11:59:54;;;;;;;4.80;4.40;;;35.50;40.80;;;;;;5055660;28;20448;-86
2022/08/22 12:02:58;;;;;;;5.50;4.73;;;36.50;40.40;;;;;;4977284;28;20804;-86
2022/08/22 12:13:36;;;;;;;3.40;3.20;;;38.70;35.00;;;;;;4886826;29;20520;-86
2022/08/22 12:16:11;;;;;;;4.27;3.90;;;38.60;35.40;;;;;;5095013;22;20495;-86
2022/08/22 12:18:49;;;;;;;5.90;5.50;;;37.50;33.70;;;;;;5080150;28;20441;-86
2022/08/22 12:21:40;;;;;;;6.70;6.10;;;36.30;35.80;;;;;;5076656;28;20477;-85
2022/08/22 12:24:23;;;;;;;4.33;3.93;;;35.20;37.00;;;;;;5077675;28;20451;-85
2022/08/22 12:27:18;;;;;;;11.47;10.40;;;35.00;39.40;;;;;;5059714;28;20475;-85
2022/08/22 12:30:02;;;;;;;7.27;6.77;;;35.40;40.10;;;;;;5110748;22;20523;-82
2022/08/22 12:32:52;;;;;;;8.07;7.43;;;35.80;39.50;;;;;;5087473;28;20443;-81
2022/08/22 12:35:31;;;;;;;4.10;3.80;;;36.40;40.00;;;;;;5094515;28;20447;-81
2022/08/22 12:38:12;;;;;;;4.33;4.03;;;37.00;37.50;;;;;;5093208;28;20856;-82
2022/08/22 12:40:53;;;;;;;4.53;4.23;;;37.70;36.80;;;;;;5073987;28;20440;-82
2022/08/22 12:43:39;;;;;;;3.90;3.70;;;38.60;35.20;;;;;;5074417;28;20451;-83
2022/08/22 12:46:17;;;;;;;4.47;4.03;;;39.70;35.10;;;;;;5073361;28;20440;-83
2022/08/22 12:48:59;;;;;;;3.63;3.27;;;40.40;32.00;;;;;;5072514;28;20476;-83
2022/08/22 12:51:31;;;;;;;4.87;4.47;;;40.40;30.80;;;;;;5072465;28;20440;-80
2022/08/22 12:54:24;;;;;;;3.30;3.10;;;40.50;30.60;;;;;;5076098;28;20445;-82
2022/08/22 12:57:01;;;;;;;4.77;4.47;;;40.90;30.20;;;;;;5072235;28;20494;-83
2022/08/22 12:59:32;;;;;;;3.83;3.50;;;41.40;30.60;;;;;;5075796;28;20476;-81
2022/08/22 13:02:11;;;;;;;4.10;3.87;;;41.90;29.20;;;;;;5078075;28;20466;-83
2022/08/22 13:04:48;;;;;;;4.10;3.90;;;42.50;28.30;;;;;;5072228;28;20471;-83
2022/08/22 13:07:23;;;;;;;4.20;3.90;;;42.70;28.10;;;;;;5070554;28;20535;-84
2022/08/22 13:09:53;;;;;;;10.23;9.43;;;42.10;28.00;;;;;;5059019;28;20993;-83
2022/08/22 13:12:28;;;;;;;17.47;16.37;;;41.10;27.80;;;;;;5059889;28;20958;-80
2022/08/22 13:15:00;;;;;;;5.50;5.10;;;40.00;29.10;;;;;;5060317;28;20452;-80
2022/08/22 13:17:29;;;;;;;4.23;4.00;;;39.20;30.10;;;;;;5059616;28;20488;-83
2022/08/22 13:20:02;;;;;;;4.17;3.87;;;38.30;31.00;;;;;;5071788;28;20468;-82
2022/08/22 13:22:32;;;;;;;3.70;3.50;;;37.40;31.90;;;;;;5072639;28;20487;-83
2022/08/22 13:25:04;;;;;;;4.30;4.00;;;36.60;33.20;;;;;;5071100;28;20519;-83
2022/08/22 13:27:34;;;;;;;4.40;4.00;;;35.80;33.10;;;;;;5069124;28;20449;-83
2022/08/22 13:30:05;;;;;;;3.83;3.53;;;34.60;33.70;;;;;;5068979;28;20944;-82
2022/08/22 13:32:39;;;;;;;3.50;3.30;;;34.00;36.00;;;;;;5070441;28;20456;-83
2022/08/22 13:35:09;;;;;;;3.77;3.57;;;34.00;37.20;;;;;;5068653;28;20444;-84
2022/08/22 13:37:39;;;;;;;3.23;3.03;;;34.20;35.50;;;;;;5066998;28;20479;-83
2022/08/22 13:40:10;;;;;;;4.10;3.70;;;34.50;35.00;;;;;;5068920;28;20456;-84
2022/08/22 13:42:44;;;;;;;3.43;3.17;;;35.30;35.20;;;;;;5065193;28;20447;-83
2022/08/22 13:45:15;;;;;;;4.70;4.40;;;35.90;34.00;;;;;;5072187;28;20435;-80
2022/08/22 13:47:54;;;;;;;4.33;3.57;;;36.50;34.30;;;;;;5068083;28;20444;-83
2022/08/22 13:50:23;;;;;;;3.67;3.43;;;37.50;34.30;;;;;;5066640;28;20453;-83
2022/08/22 13:52:57;;;;;;;5.40;3.50;;;37.90;31.00;;;;;;5064961;28;21004;-83
2022/08/22 13:55:32;;;;;;;4.13;3.70;;;38.70;30.00;;;;;;5067268;28;20449;-83
2022/08/22 13:58:04;;;;;;;3.70;3.40;;;39.20;29.80;;;;;;5064442;28;20490;-83
2022/08/22 14:01:04;;;;;;;3.63;3.40;;;39.90;29.90;;;;;;5064913;28;20448;-83